Station History

Weather Underground - logo

Station Historical Data
Daily Summary for March 7, 2018 Units:  English    Metric   Both
« Previous Day
Next Day »
Daily Weekly Monthly Yearly Custom
  High: Low: Average:
Temperature: 71.9 °F 45.4 °F 55.1 °F
Dew Point: 47.7 °F 40.3 °F 43.4 °F
Humidity: 89 % 32 % 68 %
Wind Speed: 5.8 mph 0.0 mph 0.5 mph
Wind Gust: 5.8 mph - -
Wind:- - WSW
Pressure: 30.10 in 29.98 in -
Precipitation: 0.00 in    
Historical Graphs
 
 
Tabular Data for March 7, 2018
Time Temperature Dew Point Pressure Wind Wind Speed Wind Gust Humidity Rainfall Rate (Hourly)
00:00 46.1 °F 42.1 °F 30.07 in SE 1.2 mph 1.2 mph 86 % 0.00 in
00:05 46.0 °F 42.0 °F 30.08 in Calm     86 % 0.00 in
00:10 45.8 °F 42.2 °F 30.08 in Calm     87 % 0.00 in
00:15 45.8 °F 42.2 °F 30.08 in Calm     87 % 0.00 in
00:20 45.8 °F 42.2 °F 30.08 in Calm     87 % 0.00 in
00:25 45.9 °F 42.2 °F 30.07 in Calm     87 % 0.00 in
00:30 45.9 °F 42.2 °F 30.07 in Calm     87 % 0.00 in
00:35 45.9 °F 42.2 °F 30.07 in Calm     87 % 0.00 in
00:40 45.9 °F 41.9 °F 30.07 in SE 1.2 mph   86 % 0.00 in
00:45 45.9 °F 41.9 °F 30.07 in Calm     86 % 0.00 in
00:50 45.8 °F 41.9 °F 30.07 in Calm     86 % 0.00 in
00:55 45.7 °F 41.8 °F 30.06 in Calm     86 % 0.00 in
01:00 45.5 °F 41.6 °F 30.06 in Calm     86 % 0.00 in
01:05 45.5 °F 41.6 °F 30.06 in Calm     86 % 0.00 in
01:10 45.5 °F 41.3 °F 30.07 in Calm   0.1 mph 85 % 0.00 in
01:15 45.6 °F 41.4 °F 30.07 in Calm     85 % 0.00 in
01:20 45.7 °F 41.1 °F 30.07 in Calm     84 % 0.00 in
01:25 45.6 °F 41.0 °F 30.07 in Calm     84 % 0.00 in
01:30 45.5 °F 41.3 °F 30.07 in Calm     85 % 0.00 in
01:36 45.5 °F 41.3 °F 30.07 in Calm     85 % 0.00 in
01:41 45.7 °F 41.4 °F 30.07 in Calm     85 % 0.00 in
01:46 45.9 °F 41.3 °F 30.07 in Calm     84 % 0.00 in
01:51 45.9 °F 41.6 °F 30.07 in Calm     85 % 0.00 in
01:56 46.1 °F 41.5 °F 30.06 in SE 1.2 mph 1.2 mph 84 % 0.00 in
02:01 46.3 °F 41.7 °F 30.06 in SE 1.2 mph 1.2 mph 84 % 0.00 in
02:06 46.4 °F 41.5 °F 30.06 in ESE 5.8 mph 5.8 mph 83 % 0.00 in
02:11 46.4 °F 41.5 °F 30.05 in Calm     83 % 0.00 in
02:16 46.4 °F 41.8 °F 30.06 in Calm     84 % 0.00 in
02:21 46.4 °F 41.8 °F 30.06 in Calm     84 % 0.00 in
02:26 46.3 °F 41.7 °F 30.05 in Calm     84 % 0.00 in
02:31 46.2 °F 41.6 °F 30.05 in Calm     84 % 0.00 in
02:36 46.5 °F 41.9 °F 30.05 in Calm     84 % 0.00 in
02:41 46.8 °F 42.2 °F 30.05 in Calm     84 % 0.00 in
02:46 46.8 °F 42.2 °F 30.05 in Calm     84 % 0.00 in
02:51 46.9 °F 42.3 °F 30.05 in Calm     84 % 0.00 in
02:56 46.9 °F 42.3 °F 30.04 in Calm     84 % 0.00 in
03:01 47.3 °F 42.4 °F 30.05 in Calm     83 % 0.00 in
03:06 47.7 °F 42.5 °F 30.05 in Calm     82 % 0.00 in
03:11 48.0 °F 42.8 °F 30.05 in Calm     82 % 0.00 in
03:16 48.3 °F 42.7 °F 30.04 in Calm     81 % 0.00 in
03:21 48.4 °F 42.5 °F 30.04 in Calm     80 % 0.00 in
03:26 48.4 °F 42.5 °F 30.04 in Calm     80 % 0.00 in
03:31 48.3 °F 42.4 °F 30.04 in Calm     80 % 0.00 in
03:36 48.3 °F 42.4 °F 30.04 in Calm     80 % 0.00 in
03:41 48.3 °F 42.4 °F 30.04 in Calm     80 % 0.00 in
03:46 48.7 °F 42.5 °F 30.03 in Calm     79 % 0.00 in
03:47 48.7 °F 42.5 °F 30.03 in Calm     79 % 0.00 in
03:52 49.0 °F 42.4 °F 30.03 in ESE 1.2 mph 1.2 mph 78 % 0.00 in
03:57 49.4 °F 42.1 °F 30.03 in NW 1.2 mph 1.2 mph 76 % 0.00 in
04:02 49.9 °F 42.3 °F 30.03 in Calm     75 % 0.00 in
04:07 50.4 °F 42.1 °F 30.04 in NNW 1.2 mph 1.2 mph 73 % 0.00 in
04:12 50.7 °F 42.0 °F 30.04 in NNW 1.0 mph 1.0 mph 72 % 0.00 in
04:17 50.7 °F 42.4 °F 30.04 in Calm     73 % 0.00 in
04:22 50.5 °F 42.2 °F 30.04 in Calm     73 % 0.00 in
04:27 50.2 °F 42.2 °F 30.03 in Calm     74 % 0.00 in
04:32 50.2 °F 41.9 °F 30.04 in NW 1.2 mph   73 % 0.00 in
04:37 50.3 °F 41.6 °F 30.04 in Calm     72 % 0.00 in
04:42 50.4 °F 41.3 °F 30.03 in Calm     71 % 0.00 in
04:47 50.4 °F 41.3 °F 30.03 in NW 1.2 mph   71 % 0.00 in
04:52 50.4 °F 41.3 °F 30.03 in NNW 1.2 mph   71 % 0.00 in
04:57 50.4 °F 41.3 °F 30.03 in Calm   0.1 mph 71 % 0.00 in
05:02 50.4 °F 41.3 °F 30.03 in WNW 1.2 mph   71 % 0.00 in
05:07 50.3 °F 42.0 °F 30.03 in Calm     73 % 0.00 in
05:12 49.8 °F 42.5 °F 30.03 in Calm     76 % 0.00 in
05:17 49.0 °F 42.1 °F 30.03 in Calm     77 % 0.00 in
05:22 48.2 °F 42.3 °F 30.04 in Calm     80 % 0.00 in
05:27 47.5 °F 42.3 °F 30.05 in Calm     82 % 0.00 in
05:32 47.1 °F 42.8 °F 30.05 in Calm     85 % 0.00 in
05:37 46.9 °F 43.2 °F 30.05 in Calm     87 % 0.00 in
05:42 46.5 °F 42.5 °F 30.06 in Calm     86 % 0.00 in
05:47 46.2 °F 42.5 °F 30.06 in Calm     87 % 0.00 in
05:52 46.1 °F 42.4 °F 30.06 in Calm     87 % 0.00 in
05:57 46.0 °F 42.3 °F 30.06 in Calm   0.1 mph 87 % 0.00 in
06:02 46.0 °F 42.6 °F 30.06 in Calm     88 % 0.00 in
06:07 45.7 °F 42.3 °F 30.07 in SE 1.2 mph 1.2 mph 88 % 0.00 in
06:12 45.5 °F 42.4 °F 30.07 in SE 1.2 mph   89 % 0.00 in
06:17 45.5 °F 42.4 °F 30.07 in Calm     89 % 0.00 in
06:22 45.4 °F 42.3 °F 30.07 in Calm     89 % 0.00 in
06:27 45.5 °F 42.4 °F 30.07 in Calm     89 % 0.00 in
06:32 45.5 °F 42.4 °F 30.07 in SSE 1.2 mph 1.2 mph 89 % 0.00 in
06:37 45.6 °F 42.5 °F 30.08 in Calm     89 % 0.00 in
06:42 45.7 °F 42.6 °F 30.08 in Calm     89 % 0.00 in
06:47 45.8 °F 42.4 °F 30.08 in Calm     88 % 0.00 in
06:52 45.9 °F 42.5 °F 30.09 in Calm     88 % 0.00 in
06:57 46.1 °F 42.7 °F 30.09 in Calm     88 % 0.00 in
07:02 46.2 °F 42.5 °F 30.09 in Calm     87 % 0.00 in
07:08 46.4 °F 42.7 °F 30.09 in Calm     87 % 0.00 in
07:13 46.5 °F 42.8 °F 30.10 in Calm     87 % 0.00 in
07:18 46.6 °F 42.9 °F 30.10 in Calm     87 % 0.00 in
07:23 46.7 °F 43.0 °F 30.10 in Calm     87 % 0.00 in
07:28 46.8 °F 43.1 °F 30.10 in Calm     87 % 0.00 in
07:33 46.9 °F 43.2 °F 30.10 in Calm     87 % 0.00 in
07:38 47.1 °F 43.1 °F 30.10 in Calm     86 % 0.00 in
07:43 47.4 °F 43.4 °F 30.10 in Calm     86 % 0.00 in
07:48 47.5 °F 43.5 °F 30.09 in Calm     86 % 0.00 in
07:53 47.6 °F 43.6 °F 30.09 in SE 1.2 mph   86 % 0.00 in
07:58 47.9 °F 43.6 °F 30.09 in Calm     85 % 0.00 in
08:03 48.1 °F 43.8 °F 30.09 in Calm     85 % 0.00 in
08:08 48.3 °F 43.7 °F 30.09 in Calm     84 % 0.00 in
08:13 48.5 °F 43.9 °F 30.09 in Calm     84 % 0.00 in
08:18 48.8 °F 44.2 °F 30.09 in Calm     84 % 0.00 in
08:23 49.0 °F 44.4 °F 30.10 in Calm     84 % 0.00 in
08:28 49.2 °F 43.9 °F 30.10 in Calm     82 % 0.00 in
08:33 49.4 °F 44.1 °F 30.10 in Calm     82 % 0.00 in
08:38 49.7 °F 44.1 °F 30.10 in Calm     81 % 0.00 in
08:43 49.9 °F 43.6 °F 30.10 in SE 1.0 mph 1.0 mph 79 % 0.00 in
08:48 50.3 °F 44.4 °F 30.10 in Calm     80 % 0.00 in
08:53 50.5 °F 44.2 °F 30.10 in Calm     79 % 0.00 in
08:58 50.8 °F 43.8 °F 30.09 in Calm     77 % 0.00 in
09:03 51.1 °F 44.5 °F 30.09 in Calm     78 % 0.00 in
09:08 51.3 °F 44.3 °F 30.08 in Calm     77 % 0.00 in
09:13 51.6 °F 44.6 °F 30.08 in Calm     77 % 0.00 in
09:18 52.0 °F 44.0 °F 30.06 in Calm     74 % 0.00 in
09:23 52.5 °F 44.1 °F 30.06 in Calm     73 % 0.00 in
09:28 53.1 °F 44.3 °F 30.06 in SE 2.3 mph 2.3 mph 72 % 0.00 in
09:33 53.9 °F 44.7 °F 30.07 in Calm     71 % 0.00 in
09:38 54.6 °F 44.6 °F 30.06 in NW 2.0 mph   69 % 0.00 in
09:43 55.3 °F 45.3 °F 30.07 in Calm     69 % 0.00 in
09:48 56.1 °F 45.7 °F 30.08 in NW 2.3 mph 2.3 mph 68 % 0.00 in
09:53 56.4 °F 45.2 °F 30.08 in NNW 1.2 mph 1.2 mph 66 % 0.00 in
09:58 56.6 °F 45.4 °F 30.08 in NW 1.2 mph 1.2 mph 66 % 0.00 in
10:03 56.8 °F 45.2 °F 30.09 in North 2.3 mph 2.3 mph 65 % 0.00 in
10:08 56.6 °F 45.8 °F 30.09 in SSE 2.0 mph 2.0 mph 67 % 0.00 in
10:13 56.3 °F 46.3 °F 30.09 in Calm     69 % 0.00 in
10:18 56.1 °F 46.4 °F 30.09 in NW 1.0 mph 1.0 mph 70 % 0.00 in
10:23 56.0 °F 46.4 °F 30.09 in SSE 2.3 mph 2.3 mph 70 % 0.00 in
10:28 55.9 °F 46.6 °F 30.09 in Calm     71 % 0.00 in
10:33 56.1 °F 46.8 °F 30.09 in Calm     71 % 0.00 in
10:38 56.3 °F 45.9 °F 30.08 in NW 1.2 mph   68 % 0.00 in
10:43 56.2 °F 45.8 °F 30.08 in Calm     68 % 0.00 in
10:48 56.4 °F 46.0 °F 30.09 in Calm     68 % 0.00 in
10:53 56.8 °F 46.3 °F 30.09 in SE 2.3 mph 2.3 mph 68 % 0.00 in
10:58 57.1 °F 46.2 °F 30.10 in ESE 1.2 mph 1.2 mph 67 % 0.00 in
11:03 57.4 °F 46.5 °F 30.10 in SE 2.3 mph 2.3 mph 67 % 0.00 in
11:08 57.4 °F 46.1 °F 30.10 in East 2.3 mph 2.3 mph 66 % 0.00 in
11:13 57.5 °F 46.2 °F 30.10 in South 2.3 mph 2.3 mph 66 % 0.00 in
11:18 57.5 °F 46.2 °F 30.10 in ESE 2.3 mph 2.3 mph 66 % 0.00 in
11:23 57.7 °F 46.4 °F 30.09 in SSE 1.2 mph   66 % 0.00 in
11:28 58.1 °F 46.4 °F 30.09 in SE 1.2 mph   65 % 0.00 in
11:33 58.6 °F 46.5 °F 30.09 in Calm   0.5 mph 64 % 0.00 in
11:38 59.0 °F 46.8 °F 30.09 in SSE 2.3 mph 2.3 mph 64 % 0.00 in
11:43 59.6 °F 47.0 °F 30.09 in ENE 2.3 mph 2.3 mph 63 % 0.00 in
11:48 60.3 °F 47.2 °F 30.08 in SE 3.0 mph 3.0 mph 62 % 0.00 in
11:53 61.1 °F 46.7 °F 30.08 in SE 3.5 mph 3.5 mph 59 % 0.00 in
11:58 62.0 °F 47.0 °F 30.08 in SE 2.3 mph 2.3 mph 58 % 0.00 in
12:03 62.6 °F 46.2 °F 30.07 in ESE 1.2 mph 1.2 mph 55 % 0.00 in
12:08 63.2 °F 45.3 °F 30.07 in East 1.0 mph   52 % 0.00 in
12:14 63.7 °F 44.7 °F 30.07 in Calm     50 % 0.00 in
12:19 64.3 °F 45.3 °F 30.06 in ESE 1.2 mph 1.2 mph 50 % 0.00 in
12:24 64.8 °F 45.7 °F 30.06 in Calm     50 % 0.00 in
12:29 65.3 °F 45.6 °F 30.06 in SSE 2.3 mph 2.3 mph 49 % 0.00 in
12:34 65.6 °F 44.8 °F 30.06 in Calm     47 % 0.00 in
12:39 66.2 °F 44.2 °F 30.06 in Calm     45 % 0.00 in
12:44 66.4 °F 43.8 °F 30.05 in NW 2.0 mph 2.0 mph 44 % 0.00 in
12:49 66.4 °F 43.2 °F 30.05 in NW 2.3 mph 2.3 mph 43 % 0.00 in
12:54 66.6 °F 44.0 °F 30.04 in NW 1.2 mph 1.2 mph 44 % 0.00 in
12:59 66.7 °F 44.1 °F 30.04 in WNW 1.2 mph   44 % 0.00 in
13:04 67.1 °F 42.6 °F 30.03 in WNW 1.2 mph   41 % 0.00 in
13:09 67.4 °F 44.7 °F 30.03 in NW 2.3 mph 2.3 mph 44 % 0.00 in
13:14 67.9 °F 42.7 °F 30.03 in NW 2.3 mph 2.3 mph 40 % 0.00 in
13:19 68.0 °F 42.1 °F 30.03 in NW 2.0 mph 2.0 mph 39 % 0.00 in
13:24 68.4 °F 42.5 °F 30.03 in WNW 1.2 mph 1.2 mph 39 % 0.00 in
13:29 68.7 °F 45.3 °F 30.03 in WNW 3.5 mph 3.5 mph 43 % 0.00 in
13:34 69.3 °F 44.6 °F 30.02 in SE 1.2 mph   41 % 0.00 in
13:39 69.6 °F 42.9 °F 30.02 in Calm   0.3 mph 38 % 0.00 in
13:44 69.5 °F 42.1 °F 30.01 in NW 1.2 mph   37 % 0.00 in
13:49 69.6 °F 42.9 °F 30.01 in Calm     38 % 0.00 in
13:54 70.0 °F 41.1 °F 30.01 in Calm     35 % 0.00 in
13:59 70.3 °F 41.3 °F 30.00 in WNW 1.2 mph 1.2 mph 35 % 0.00 in
14:04 70.3 °F 40.6 °F 30.01 in NW 1.2 mph 1.2 mph 34 % 0.00 in
14:10 70.2 °F 41.3 °F 30.01 in NW 2.3 mph   35 % 0.00 in
14:15 70.2 °F 41.3 °F 30.01 in NW 2.3 mph 2.3 mph 35 % 0.00 in
14:20 70.3 °F 41.3 °F 30.00 in NW 1.2 mph 1.2 mph 35 % 0.00 in
14:25 70.3 °F 42.1 °F 30.00 in Calm     36 % 0.00 in
14:30 70.0 °F 41.8 °F 30.00 in NW 2.3 mph 2.3 mph 36 % 0.00 in
14:35 69.9 °F 42.4 °F 30.00 in WNW 1.2 mph 1.2 mph 37 % 0.00 in
14:40 69.9 °F 41.0 °F 30.00 in NNW 1.2 mph 1.2 mph 35 % 0.00 in
14:45 69.8 °F 40.9 °F 30.00 in Calm     35 % 0.00 in
14:50 69.9 °F 43.1 °F 30.00 in NW 1.2 mph 1.2 mph 38 % 0.00 in
14:55 70.0 °F 43.9 °F 30.00 in NW 1.2 mph   39 % 0.00 in
15:00 70.5 °F 43.7 °F 30.00 in NW 1.2 mph 1.2 mph 38 % 0.00 in
15:05 70.7 °F 43.1 °F 30.00 in NW 1.2 mph   37 % 0.00 in
15:10 70.9 °F 44.0 °F 29.99 in NW 2.3 mph 2.3 mph 38 % 0.00 in
15:15 71.1 °F 42.8 °F 29.99 in NW 1.2 mph 1.2 mph 36 % 0.00 in
15:20 71.3 °F 44.4 °F 29.99 in SE 1.2 mph   38 % 0.00 in
15:25 71.7 °F 43.3 °F 29.98 in NW 1.2 mph 1.2 mph 36 % 0.00 in
15:30 71.7 °F 41.8 °F 29.99 in NW 1.0 mph 1.0 mph 34 % 0.00 in
15:35 71.7 °F 41.0 °F 29.98 in WNW 2.3 mph 2.3 mph 33 % 0.00 in
15:40 71.8 °F 41.1 °F 29.98 in NW 1.2 mph 1.2 mph 33 % 0.00 in
15:45 71.8 °F 41.1 °F 29.98 in NW 1.2 mph 1.2 mph 33 % 0.00 in
15:50 71.8 °F 40.3 °F 29.98 in Calm     32 % 0.00 in
15:55 71.8 °F 41.1 °F 29.98 in NW 1.2 mph 1.2 mph 33 % 0.00 in
16:00 71.9 °F 40.4 °F 29.98 in Calm     32 % 0.00 in
16:05 71.8 °F 40.3 °F 29.98 in NW 1.2 mph 1.2 mph 32 % 0.00 in
16:10 71.7 °F 40.3 °F 29.98 in Calm   0.2 mph 32 % 0.00 in
16:15 71.8 °F 42.7 °F 29.99 in WNW 1.2 mph   35 % 0.00 in
16:20 71.8 °F 41.1 °F 29.99 in Calm     33 % 0.00 in
16:25 71.7 °F 42.6 °F 29.99 in Calm     35 % 0.00 in
16:30 71.6 °F 42.5 °F 29.99 in West 1.2 mph 1.2 mph 35 % 0.00 in
16:35 71.4 °F 41.6 °F 29.98 in NW 1.2 mph 1.2 mph 34 % 0.00 in
16:40 71.3 °F 41.5 °F 29.98 in NW 1.2 mph 1.2 mph 34 % 0.00 in
16:45 71.2 °F 41.4 °F 29.99 in Calm     34 % 0.00 in
16:50 71.1 °F 41.3 °F 29.99 in Calm     34 % 0.00 in
16:55 70.9 °F 41.1 °F 29.99 in NW 1.2 mph   34 % 0.00 in
17:00 70.7 °F 41.7 °F 29.99 in Calm   0.1 mph 35 % 0.00 in
17:05 70.4 °F 42.9 °F 29.99 in West 1.2 mph 1.2 mph 37 % 0.00 in
17:10 70.1 °F 42.6 °F 29.99 in Calm     37 % 0.00 in
17:15 69.7 °F 42.9 °F 29.99 in Calm     38 % 0.00 in
17:20 69.3 °F 42.6 °F 29.99 in Calm     38 % 0.00 in
17:25 68.9 °F 44.2 °F 29.99 in Calm     41 % 0.00 in
17:30 68.3 °F 44.9 °F 29.99 in Calm     43 % 0.00 in
17:35 67.7 °F 45.0 °F 29.99 in Calm     44 % 0.00 in
17:40 67.0 °F 45.5 °F 29.99 in Calm     46 % 0.00 in
17:45 66.4 °F 45.5 °F 29.99 in Calm     47 % 0.00 in
17:50 65.7 °F 46.0 °F 29.99 in Calm     49 % 0.00 in
17:55 64.9 °F 45.8 °F 29.99 in Calm     50 % 0.00 in
18:00 64.1 °F 46.1 °F 30.00 in Calm     52 % 0.00 in
18:05 63.3 °F 46.4 °F 30.00 in Calm     54 % 0.00 in
18:10 62.5 °F 46.6 °F 30.00 in Calm     56 % 0.00 in
18:15 61.7 °F 46.8 °F 30.00 in Calm     58 % 0.00 in
18:20 61.2 °F 46.8 °F 30.00 in Calm     59 % 0.00 in
18:25 60.9 °F 46.5 °F 30.00 in Calm     59 % 0.00 in
18:30 60.4 °F 46.4 °F 29.99 in Calm     60 % 0.00 in
18:35 59.9 °F 47.7 °F 30.00 in Calm     64 % 0.00 in
18:41 59.7 °F 47.1 °F 30.00 in Calm     63 % 0.00 in
18:46 59.2 °F 46.2 °F 30.00 in Calm     62 % 0.00 in
18:51 58.6 °F 46.9 °F 30.00 in Calm     65 % 0.00 in
18:56 58.0 °F 46.7 °F 30.00 in Calm     66 % 0.00 in
19:01 57.4 °F 46.9 °F 30.00 in Calm     68 % 0.00 in
19:06 56.8 °F 46.3 °F 30.00 in Calm     68 % 0.00 in
19:11 56.3 °F 46.6 °F 30.00 in Calm     70 % 0.00 in
19:16 55.8 °F 46.2 °F 30.00 in Calm     70 % 0.00 in
19:21 55.3 °F 45.7 °F 30.00 in Calm     70 % 0.00 in
19:26 54.9 °F 45.7 °F 30.01 in Calm     71 % 0.00 in
19:31 54.9 °F 46.4 °F 30.01 in Calm     73 % 0.00 in
19:36 54.9 °F 45.7 °F 30.01 in Calm     71 % 0.00 in
19:41 54.5 °F 45.7 °F 30.02 in Calm     72 % 0.00 in
19:46 54.0 °F 45.5 °F 30.02 in Calm     73 % 0.00 in
19:51 53.5 °F 45.4 °F 30.02 in Calm     74 % 0.00 in
19:56 53.2 °F 45.5 °F 30.02 in Calm     75 % 0.00 in
20:01 53.2 °F 44.8 °F 30.02 in Calm     73 % 0.00 in
20:06 53.7 °F 44.9 °F 30.03 in Calm     72 % 0.00 in
20:11 53.9 °F 44.0 °F 30.03 in Calm     69 % 0.00 in
20:16 54.3 °F 43.6 °F 30.03 in Calm     67 % 0.00 in
20:21 54.2 °F 43.9 °F 30.03 in Calm     68 % 0.00 in
20:26 53.8 °F 43.9 °F 30.04 in Calm     69 % 0.00 in
20:31 53.0 °F 43.5 °F 30.04 in Calm     70 % 0.00 in
20:36 52.2 °F 44.2 °F 30.05 in Calm     74 % 0.00 in
20:41 51.9 °F 43.9 °F 30.05 in Calm     74 % 0.00 in
20:46 51.5 °F 43.8 °F 30.05 in Calm     75 % 0.00 in
20:51 50.8 °F 43.8 °F 30.06 in Calm     77 % 0.00 in
20:56 50.6 °F 44.0 °F 30.06 in Calm     78 % 0.00 in
21:01 50.5 °F 43.6 °F 30.06 in Calm     77 % 0.00 in
21:06 50.4 °F 43.8 °F 30.06 in Calm     78 % 0.00 in
21:11 50.3 °F 43.7 °F 30.06 in Calm     78 % 0.00 in
21:16 50.1 °F 43.5 °F 30.07 in Calm     78 % 0.00 in
21:21 49.6 °F 43.4 °F 30.07 in Calm     79 % 0.00 in
21:26 49.2 °F 43.3 °F 30.07 in Calm     80 % 0.00 in
21:31 48.9 °F 43.6 °F 30.07 in Calm     82 % 0.00 in
21:36 49.1 °F 43.8 °F 30.07 in Calm     82 % 0.00 in
21:41 49.1 °F 43.5 °F 30.07 in Calm     81 % 0.00 in
21:46 48.9 °F 43.6 °F 30.07 in Calm     82 % 0.00 in
21:51 48.8 °F 43.9 °F 30.07 in Calm     83 % 0.00 in
21:56 48.9 °F 44.0 °F 30.07 in Calm     83 % 0.00 in
22:01 48.9 °F 44.0 °F 30.07 in Calm     83 % 0.00 in
22:06 49.0 °F 44.1 °F 30.07 in Calm     83 % 0.00 in
22:11 49.0 °F 44.1 °F 30.07 in Calm     83 % 0.00 in
22:16 49.0 °F 44.1 °F 30.07 in Calm     83 % 0.00 in
22:21 49.0 °F 44.1 °F 30.07 in Calm     83 % 0.00 in
22:26 48.8 °F 43.5 °F 30.07 in Calm     82 % 0.00 in
22:31 48.8 °F 43.5 °F 30.07 in Calm     82 % 0.00 in
22:36 48.6 °F 43.4 °F 30.07 in Calm     82 % 0.00 in
22:41 48.5 °F 43.6 °F 30.07 in Calm     83 % 0.00 in
22:46 48.5 °F 43.6 °F 30.06 in Calm     83 % 0.00 in
22:51 48.6 °F 43.7 °F 30.06 in Calm     83 % 0.00 in
22:56 48.8 °F 43.2 °F 30.07 in Calm     81 % 0.00 in
23:01 48.3 °F 42.4 °F 30.07 in Calm     80 % 0.00 in
23:06 47.3 °F 41.8 °F 30.07 in Calm     81 % 0.00 in
23:11 46.6 °F 41.4 °F 30.07 in Calm     82 % 0.00 in
23:16 46.2 °F 41.3 °F 30.07 in Calm     83 % 0.00 in
23:21 46.0 °F 41.7 °F 30.07 in Calm     85 % 0.00 in
23:26 45.9 °F 41.9 °F 30.07 in Calm     86 % 0.00 in
23:31 45.9 °F 41.9 °F 30.07 in Calm     86 % 0.00 in
23:36 45.9 °F 41.9 °F 30.06 in Calm     86 % 0.00 in
23:41 45.8 °F 41.9 °F 30.07 in Calm     86 % 0.00 in
23:46 45.7 °F 41.8 °F 30.07 in Calm     86 % 0.00 in
23:51 45.9 °F 41.9 °F 30.07 in Calm     86 % 0.00 in
23:56 45.8 °F 41.9 °F 30.07 in Calm     86 % 0.00 in
Park Place, Exeter, Tulare County, California, USA
Compliments of Weather Underground - 2.75 mb